createdAt,value
2022-10-09T00:01:03.874Z,13.10
2022-10-09T00:03:30.555Z,13.32
2022-10-09T00:05:57.098Z,13.10
2022-10-09T00:08:23.588Z,13.03
2022-10-09T00:10:50.152Z,12.56
2022-10-09T00:13:16.709Z,13.37
2022-10-09T00:15:45.001Z,13.35
2022-10-09T00:18:13.904Z,13.31
2022-10-09T00:20:43.331Z,13.27
2022-10-09T00:23:10.911Z,13.25
2022-10-09T00:25:37.456Z,13.23
2022-10-09T00:28:04.749Z,13.20
2022-10-09T00:30:31.611Z,12.17
2022-10-09T00:32:58.369Z,12.99
2022-10-09T00:35:25.350Z,13.23
2022-10-09T00:37:51.888Z,13.23
2022-10-09T00:40:18.443Z,13.31
2022-10-09T00:42:45.766Z,12.67
2022-10-09T00:45:20.703Z,13.24
2022-10-09T00:47:50.509Z,13.43
2022-10-09T00:50:22.920Z,13.50
2022-10-09T00:52:54.158Z,13.50
2022-10-09T00:55:22.817Z,12.80
2022-10-09T00:57:50.903Z,13.04
2022-10-09T01:00:17.931Z,13.15
2022-10-09T01:02:44.584Z,13.49
2022-10-09T01:05:12.899Z,13.30
2022-10-09T01:07:52.284Z,13.41
2022-10-09T01:10:30.097Z,13.41
2022-10-09T01:12:59.242Z,13.45
2022-10-09T01:15:36.819Z,13.33
2022-10-09T01:18:12.746Z,13.18
2022-10-09T01:20:54.628Z,13.33
2022-10-09T01:23:49.120Z,13.39
2022-10-09T01:26:30.595Z,13.44
2022-10-09T01:29:02.380Z,13.26
2022-10-09T01:31:34.151Z,11.60
2022-10-09T01:34:01.637Z,13.03
2022-10-09T01:36:30.327Z,13.44
2022-10-09T01:39:01.566Z,13.31
2022-10-09T01:41:28.696Z,13.44
2022-10-09T01:43:55.410Z,12.98
2022-10-09T01:46:26.504Z,13.39
2022-10-09T01:49:13.862Z,13.34
2022-10-09T01:51:55.917Z,13.34
2022-10-09T01:54:48.675Z,13.33
2022-10-09T01:57:22.613Z,13.38
2022-10-09T01:59:51.666Z,13.39
2022-10-09T02:02:19.834Z,13.39
2022-10-09T02:04:48.788Z,13.36
2022-10-09T02:07:16.604Z,13.32
2022-10-09T02:09:44.153Z,13.33
2022-10-09T02:12:13.264Z,13.10
2022-10-09T02:14:40.031Z,13.24
2022-10-09T02:17:14.277Z,12.49
2022-10-09T02:19:48.544Z,12.30
2022-10-09T02:22:31.844Z,13.06
2022-10-09T02:25:00.720Z,12.12
2022-10-09T02:27:28.123Z,12.83
2022-10-09T02:29:55.057Z,12.49
2022-10-09T02:32:22.803Z,12.21
2022-10-09T02:34:49.305Z,12.74
2022-10-09T02:37:15.879Z,13.10
2022-10-09T02:39:43.674Z,13.06
2022-10-09T02:42:10.706Z,11.41
2022-10-09T02:44:37.230Z,12.86
2022-10-09T02:47:03.875Z,13.06
2022-10-09T02:49:30.382Z,13.02
2022-10-09T02:51:56.892Z,12.94
2022-10-09T02:54:23.440Z,12.98
2022-10-09T02:56:49.953Z,13.03
2022-10-09T02:59:16.485Z,12.89
2022-10-09T03:01:43.071Z,12.36
2022-10-09T03:04:09.611Z,11.32
2022-10-09T03:06:36.105Z,12.87
2022-10-09T03:09:02.750Z,12.80
2022-10-09T03:11:29.326Z,12.83
2022-10-09T03:13:56.226Z,12.36
2022-10-09T03:16:24.452Z,12.61
2022-10-09T03:18:52.211Z,12.81
2022-10-09T03:21:24.592Z,12.85
2022-10-09T03:23:52.366Z,11.89
2022-10-09T03:26:21.536Z,12.00
2022-10-09T03:28:50.104Z,12.58
2022-10-09T03:31:39.825Z,11.58
2022-10-09T03:34:05.605Z,11.79
2022-10-09T03:36:32.102Z,11.92
2022-10-09T03:38:58.653Z,12.01
2022-10-09T03:41:25.249Z,12.76
2022-10-09T03:43:51.897Z,11.61
2022-10-09T03:46:18.520Z,12.88
2022-10-09T03:48:45.119Z,12.86
2022-10-09T03:51:11.580Z,12.49
2022-10-09T03:53:38.169Z,12.62
2022-10-09T03:56:04.923Z,12.82
2022-10-09T03:58:31.459Z,12.58
2022-10-09T04:00:58.032Z,12.79
2022-10-09T04:03:24.597Z,12.40
2022-10-09T04:05:51.134Z,12.80
2022-10-09T04:08:17.643Z,12.78
2022-10-09T04:10:44.166Z,12.48
2022-10-09T04:13:10.737Z,12.36
2022-10-09T04:15:37.651Z,12.88
2022-10-09T04:18:05.115Z,12.88
2022-10-09T04:20:31.975Z,12.06
2022-10-09T04:22:58.472Z,12.74
2022-10-09T04:25:24.997Z,12.72
2022-10-09T04:27:51.509Z,12.54
2022-10-09T04:30:18.026Z,12.62
2022-10-09T04:32:44.527Z,12.75
2022-10-09T04:35:10.993Z,12.72
2022-10-09T04:37:37.515Z,12.64
2022-10-09T04:40:04.700Z,11.00
2022-10-09T04:42:31.211Z,10.84
2022-10-09T04:44:57.777Z,12.55
2022-10-09T04:47:24.378Z,12.27
2022-10-09T04:49:50.945Z,11.76
2022-10-09T04:52:17.490Z,10.96
2022-10-09T04:54:44.008Z,12.32
2022-10-09T04:57:10.473Z,12.55
2022-10-09T04:59:36.948Z,12.17
2022-10-09T05:02:03.938Z,11.81
2022-10-09T05:04:30.775Z,12.62
2022-10-09T05:06:57.251Z,11.53
2022-10-09T05:09:23.819Z,11.28
2022-10-09T05:11:50.506Z,12.51
2022-10-09T05:14:17.023Z,12.75
2022-10-09T05:17:08.444Z,12.68
2022-10-09T05:19:29.964Z,12.32
2022-10-09T05:21:56.448Z,8.18
2022-10-09T05:24:22.931Z,12.59
2022-10-09T05:26:49.474Z,12.66
2022-10-09T05:29:15.973Z,12.70
2022-10-09T05:31:48.338Z,12.78
2022-10-09T05:34:16.144Z,12.83
2022-10-09T05:36:42.618Z,11.99
2022-10-09T05:39:09.164Z,11.77
2022-10-09T05:41:35.643Z,12.42
2022-10-09T05:44:03.000Z,11.15
2022-10-09T05:46:32.203Z,12.73
2022-10-09T05:49:01.289Z,12.04
2022-10-09T05:51:31.011Z,12.25
2022-10-09T05:53:58.707Z,10.75
2022-10-09T05:56:34.489Z,12.38
2022-10-09T05:59:06.348Z,12.21
2022-10-09T06:01:36.232Z,12.04
2022-10-09T06:04:04.376Z,12.77
2022-10-09T06:06:34.748Z,12.85
2022-10-09T06:09:01.356Z,12.49
2022-10-09T06:11:31.669Z,11.29
2022-10-09T06:14:00.007Z,12.96
2022-10-09T06:16:32.787Z,12.95
2022-10-09T06:18:59.827Z,12.53
2022-10-09T06:21:27.374Z,12.99
2022-10-09T06:23:56.445Z,13.03
2022-10-09T06:26:24.296Z,12.22
2022-10-09T06:28:51.259Z,13.06
2022-10-09T06:31:20.654Z,13.14
2022-10-09T06:33:48.555Z,13.00
2022-10-09T06:36:20.012Z,12.72
2022-10-09T06:38:47.345Z,12.60
2022-10-09T06:41:18.796Z,11.85
2022-10-09T06:43:50.834Z,12.78
2022-10-09T06:46:18.649Z,13.02
2022-10-09T06:48:45.179Z,13.09
2022-10-09T06:51:14.585Z,13.06
2022-10-09T06:53:43.438Z,12.95
2022-10-09T06:56:10.698Z,12.83
2022-10-09T06:58:38.620Z,12.86
2022-10-09T07:01:32.688Z,12.73
2022-10-09T07:04:07.298Z,12.66
2022-10-09T07:06:38.323Z,11.94
2022-10-09T07:09:07.624Z,12.66
2022-10-09T07:11:40.836Z,12.62
2022-10-09T07:14:09.213Z,12.73
2022-10-09T07:16:38.770Z,12.70
2022-10-09T07:19:11.475Z,12.72
2022-10-09T07:21:43.965Z,12.83
2022-10-09T07:24:11.803Z,12.82
2022-10-09T07:26:41.361Z,12.77
2022-10-09T07:29:09.655Z,12.80
2022-10-09T07:31:36.810Z,12.93
2022-10-09T07:34:03.627Z,12.88
2022-10-09T07:36:30.275Z,12.50
2022-10-09T07:38:58.288Z,12.68
2022-10-09T07:41:27.435Z,12.74
2022-10-09T07:43:58.519Z,12.88
2022-10-09T07:46:30.992Z,12.11
2022-10-09T07:48:59.834Z,12.10
2022-10-09T07:51:29.174Z,13.16
2022-10-09T07:53:57.177Z,13.29
2022-10-09T07:56:29.604Z,13.32
2022-10-09T07:58:58.862Z,12.87
2022-10-09T08:01:28.156Z,12.25
2022-10-09T08:03:55.582Z,13.40
2022-10-09T08:06:24.246Z,13.41
2022-10-09T08:08:55.928Z,13.31
2022-10-09T08:11:24.747Z,13.23
2022-10-09T08:13:52.683Z,13.18
2022-10-09T08:16:24.147Z,12.31
2022-10-09T08:18:58.182Z,13.28
2022-10-09T08:21:26.007Z,12.88
2022-10-09T08:23:54.249Z,12.66
2022-10-09T08:26:22.529Z,13.19
2022-10-09T08:29:01.246Z,13.03
2022-10-09T08:31:28.996Z,12.66
2022-10-09T08:33:57.360Z,13.39
2022-10-09T08:36:24.155Z,13.26
2022-10-09T08:38:51.716Z,13.38
2022-10-09T08:41:33.437Z,14.02
2022-10-09T08:44:24.753Z,13.62
2022-10-09T08:47:26.207Z,13.31
2022-10-09T08:50:01.738Z,13.13
2022-10-09T08:52:44.847Z,13.02
2022-10-09T08:55:19.874Z,13.09
2022-10-09T08:57:51.539Z,12.83
2022-10-09T09:00:28.016Z,12.46
2022-10-09T09:03:00.546Z,14.27
2022-10-09T09:05:44.438Z,14.22
2022-10-09T09:08:29.746Z,15.22
2022-10-09T09:11:21.475Z,15.23
2022-10-09T09:13:59.503Z,14.08
2022-10-09T09:16:57.539Z,14.39
2022-10-09T09:19:43.934Z,14.33
2022-10-09T09:22:14.152Z,13.58
2022-10-09T09:24:43.398Z,13.81
2022-10-09T09:27:22.035Z,14.47
2022-10-09T09:29:54.419Z,15.18
2022-10-09T09:32:23.955Z,14.94
2022-10-09T09:34:52.006Z,15.55
2022-10-09T09:37:18.603Z,15.43
2022-10-09T09:40:31.400Z,15.38
2022-10-09T09:42:31.862Z,14.76
2022-10-09T09:45:02.968Z,14.60
2022-10-09T09:47:46.782Z,14.36
2022-10-09T09:50:56.249Z,14.14
2022-10-09T09:53:31.819Z,14.06
2022-10-09T09:55:58.916Z,13.61
2022-10-09T09:58:40.301Z,14.01
2022-10-09T10:01:07.672Z,13.69
2022-10-09T10:03:36.191Z,14.56
2022-10-09T10:06:03.137Z,15.06
2022-10-09T10:08:32.535Z,16.12
2022-10-09T10:11:01.492Z,16.00
2022-10-09T10:13:35.786Z,15.75
2022-10-09T10:16:03.168Z,15.63
2022-10-09T10:18:36.717Z,15.28
2022-10-09T10:21:15.513Z,15.66
2022-10-09T10:23:49.382Z,15.12
2022-10-09T10:26:24.599Z,13.66
2022-10-09T10:29:19.534Z,14.01
2022-10-09T10:32:04.313Z,14.29
2022-10-09T10:34:35.527Z,14.02
2022-10-09T10:37:14.485Z,13.38
2022-10-09T10:39:52.637Z,13.70
2022-10-09T10:42:24.431Z,13.40
2022-10-09T10:45:20.765Z,13.57
2022-10-09T10:47:52.152Z,13.83
2022-10-09T10:50:20.257Z,13.98
2022-10-09T10:53:21.225Z,14.13
2022-10-09T10:56:01.408Z,14.64
2022-10-09T10:58:59.559Z,13.70
2022-10-09T11:01:41.044Z,13.53
2022-10-09T11:04:45.361Z,14.01
2022-10-09T11:07:20.679Z,13.94
2022-10-09T11:10:20.747Z,13.81
2022-10-09T11:12:57.799Z,13.61
2022-10-09T11:16:05.146Z,13.32
2022-10-09T11:19:06.100Z,13.17
2022-10-09T11:22:04.904Z,12.73
2022-10-09T11:24:56.148Z,12.74
2022-10-09T11:27:42.375Z,12.79
2022-10-09T11:30:11.679Z,12.89
2022-10-09T11:32:49.949Z,12.44
2022-10-09T11:35:22.493Z,13.37
2022-10-09T11:38:08.168Z,13.86
2022-10-09T11:40:40.246Z,14.11
2022-10-09T11:43:27.376Z,13.43
2022-10-09T11:46:12.227Z,14.48
2022-10-09T11:48:52.671Z,15.10
2022-10-09T11:51:28.279Z,18.25
2022-10-09T11:53:55.291Z,17.22
2022-10-09T11:56:27.758Z,19.56
2022-10-09T11:59:02.672Z,19.20
2022-10-09T12:01:38.691Z,21.05
2022-10-09T12:04:13.139Z,22.53
2022-10-09T12:06:48.596Z,21.15
2022-10-09T12:09:48.350Z,23.50
2022-10-09T12:12:18.363Z,22.11
2022-10-09T12:14:48.276Z,22.15
2022-10-09T12:17:16.456Z,21.10
2022-10-09T12:19:44.252Z,19.87
2022-10-09T12:22:18.177Z,18.38
2022-10-09T12:24:57.205Z,18.75
2022-10-09T12:27:33.484Z,17.72
2022-10-09T12:30:15.864Z,16.09
2022-10-09T12:32:58.984Z,15.95
2022-10-09T12:35:32.429Z,17.05
2022-10-09T12:37:58.926Z,16.71
2022-10-09T12:40:29.199Z,17.23
2022-10-09T12:42:58.315Z,16.65
2022-10-09T12:45:27.148Z,16.65
2022-10-09T12:47:54.740Z,16.32
2022-10-09T12:50:30.759Z,16.37
2022-10-09T12:53:02.933Z,15.98
2022-10-09T12:55:34.877Z,16.28
2022-10-09T12:58:05.226Z,16.66
2022-10-09T13:00:32.595Z,16.49
2022-10-09T13:02:59.526Z,15.03
2022-10-09T13:05:37.838Z,16.22
2022-10-09T13:08:05.235Z,15.31
2022-10-09T13:10:32.187Z,15.34
2022-10-09T13:12:59.012Z,15.71
2022-10-09T13:15:32.162Z,15.25
2022-10-09T13:17:59.463Z,14.92
2022-10-09T13:20:31.804Z,14.75
2022-10-09T13:23:06.185Z,13.95
2022-10-09T13:25:37.376Z,14.03
2022-10-09T13:28:04.502Z,13.62
2022-10-09T13:30:31.278Z,13.81
2022-10-09T13:32:58.466Z,14.46
2022-10-09T13:35:25.428Z,13.98
2022-10-09T13:37:53.333Z,13.98
2022-10-09T13:40:21.855Z,14.70
2022-10-09T13:42:54.547Z,14.41
2022-10-09T13:45:23.148Z,14.37
2022-10-09T13:47:49.913Z,13.84
2022-10-09T13:50:17.770Z,14.49
2022-10-09T13:52:44.331Z,13.74
2022-10-09T13:55:11.785Z,14.55
2022-10-09T13:57:38.568Z,14.27
2022-10-09T14:00:06.879Z,13.82
2022-10-09T14:02:38.882Z,14.14
2022-10-09T14:05:05.911Z,13.76
2022-10-09T14:07:32.403Z,11.97
2022-10-09T14:09:58.897Z,13.76
2022-10-09T14:12:25.494Z,12.96
2022-10-09T14:14:53.867Z,13.57
2022-10-09T14:17:20.349Z,13.40
2022-10-09T14:19:46.869Z,13.29
2022-10-09T14:22:13.767Z,12.98
2022-10-09T14:24:40.624Z,13.19
2022-10-09T14:27:07.219Z,13.19
2022-10-09T14:29:33.724Z,12.91
2022-10-09T14:32:00.331Z,12.02
2022-10-09T14:34:26.878Z,12.60
2022-10-09T14:36:53.488Z,12.94
2022-10-09T14:39:19.994Z,12.51
2022-10-09T14:41:46.966Z,12.43
2022-10-09T14:44:13.550Z,11.47
2022-10-09T14:46:40.184Z,12.55
2022-10-09T14:49:08.397Z,12.45
2022-10-09T14:51:37.561Z,12.80
2022-10-09T14:54:05.008Z,12.89
2022-10-09T14:56:31.688Z,12.65
2022-10-09T14:59:02.863Z,11.97
2022-10-09T15:01:29.567Z,12.70
2022-10-09T15:03:56.418Z,12.57
2022-10-09T15:06:27.533Z,12.48
2022-10-09T15:09:00.326Z,11.63
2022-10-09T15:11:30.036Z,12.35
2022-10-09T15:13:56.927Z,12.27
2022-10-09T15:16:24.250Z,11.31
2022-10-09T15:18:52.658Z,11.88
2022-10-09T15:21:23.093Z,12.09
2022-10-09T15:23:50.724Z,12.05
2022-10-09T15:26:17.437Z,11.37
2022-10-09T15:28:44.825Z,11.06
2022-10-09T15:31:37.220Z,11.93
2022-10-09T15:34:05.018Z,11.91
2022-10-09T15:36:35.057Z,11.40
2022-10-09T15:39:05.732Z,11.81
2022-10-09T15:41:34.969Z,11.50
2022-10-09T15:44:04.451Z,11.68
2022-10-09T15:46:31.443Z,10.42
2022-10-09T15:48:57.960Z,11.29
2022-10-09T15:51:24.962Z,11.51
2022-10-09T15:53:52.557Z,10.73
2022-10-09T15:56:24.605Z,11.40
2022-10-09T15:58:52.419Z,11.13
2022-10-09T16:01:19.655Z,11.36
2022-10-09T16:03:46.692Z,11.13
2022-10-09T16:06:18.631Z,11.31
2022-10-09T16:08:46.191Z,11.29
2022-10-09T16:11:14.457Z,11.27
2022-10-09T16:13:43.635Z,10.59
2022-10-09T16:16:15.332Z,11.23
2022-10-09T16:18:44.530Z,9.77
2022-10-09T16:21:15.299Z,11.26
2022-10-09T16:23:43.506Z,11.21
2022-10-09T16:26:11.187Z,11.15
2022-10-09T16:28:41.178Z,11.13
2022-10-09T16:31:08.099Z,11.09
2022-10-09T16:33:34.586Z,11.02
2022-10-09T16:36:12.046Z,10.56
2022-10-09T16:38:39.654Z,10.99
2022-10-09T16:41:17.918Z,10.99
2022-10-09T16:43:46.653Z,10.52
2022-10-09T16:46:19.057Z,10.54
2022-10-09T16:48:47.250Z,10.89
2022-10-09T16:51:16.778Z,10.42
2022-10-09T16:53:43.373Z,10.89
2022-10-09T16:56:16.026Z,10.89
2022-10-09T16:58:43.647Z,10.93
2022-10-09T17:01:12.037Z,10.93
2022-10-09T17:03:42.743Z,10.86
2022-10-09T17:06:11.403Z,9.90
2022-10-09T17:08:39.456Z,10.16
2022-10-09T17:11:11.452Z,9.68
2022-10-09T17:13:42.586Z,10.19
2022-10-09T17:16:18.197Z,10.71
2022-10-09T17:18:46.936Z,9.30
2022-10-09T17:21:15.845Z,10.64
2022-10-09T17:23:42.613Z,10.36
2022-10-09T17:26:14.706Z,10.38
2022-10-09T17:28:42.441Z,10.30
2022-10-09T17:31:14.238Z,9.75
2022-10-09T17:33:42.959Z,10.50
2022-10-09T17:36:09.989Z,10.04
2022-10-09T17:38:36.592Z,10.25
2022-10-09T17:41:05.202Z,9.22
2022-10-09T17:43:32.020Z,10.08
2022-10-09T17:45:58.651Z,10.16
2022-10-09T17:48:25.535Z,9.77
2022-10-09T17:50:53.648Z,10.30
2022-10-09T17:53:22.687Z,10.31
2022-10-09T17:55:50.856Z,10.29
2022-10-09T17:58:18.962Z,8.97
2022-10-09T18:00:46.438Z,10.27
2022-10-09T18:03:14.244Z,9.26
2022-10-09T18:05:45.324Z,10.22
2022-10-09T18:08:13.119Z,10.18
2022-10-09T18:10:41.001Z,8.82
2022-10-09T18:13:11.087Z,9.67
2022-10-09T18:15:39.053Z,9.88
2022-10-09T18:18:06.180Z,10.13
2022-10-09T18:20:37.655Z,8.64
2022-10-09T18:23:05.267Z,9.59
2022-10-09T18:25:32.994Z,10.01
2022-10-09T18:30:58.676Z,9.25
2022-10-09T18:33:25.294Z,9.77
2022-10-09T18:35:52.226Z,9.94
2022-10-09T18:38:18.797Z,9.13
2022-10-09T18:40:45.995Z,9.90
2022-10-09T18:43:13.043Z,9.62
2022-10-09T18:45:45.722Z,9.82
2022-10-09T18:48:14.492Z,9.62
2022-10-09T18:50:41.445Z,9.57
2022-10-09T18:53:08.138Z,9.80
2022-10-09T18:55:35.487Z,9.55
2022-10-09T18:58:03.599Z,9.76
2022-10-09T19:00:31.061Z,9.71
2022-10-09T19:02:57.773Z,9.71
2022-10-09T19:05:24.588Z,9.00
2022-10-09T19:07:51.582Z,9.68
2022-10-09T19:10:18.408Z,8.41
2022-10-09T19:12:50.205Z,9.71
2022-10-09T19:16:06.113Z,9.72
2022-10-09T19:18:36.009Z,9.73
2022-10-09T19:21:03.013Z,9.76
2022-10-09T19:23:30.040Z,9.76
2022-10-09T19:25:58.768Z,9.42
2022-10-09T19:28:27.625Z,9.75
2022-10-09T19:30:58.305Z,9.72
2022-10-09T19:33:25.193Z,9.70
2022-10-09T19:35:54.919Z,9.63
2022-10-09T19:38:30.708Z,5.43
2022-10-09T19:41:28.082Z,9.66
2022-10-09T19:43:55.399Z,9.25
2022-10-09T19:46:22.791Z,8.87
2022-10-09T19:48:50.713Z,9.61
2022-10-09T19:51:21.133Z,9.08
2022-10-09T19:53:49.902Z,9.06
2022-10-09T19:56:19.473Z,9.51
2022-10-09T19:58:48.143Z,9.33
2022-10-09T20:01:17.432Z,9.48
2022-10-09T20:03:44.651Z,9.26
2022-10-09T20:06:12.296Z,8.59
2022-10-09T20:08:40.383Z,9.42
2022-10-09T20:11:08.764Z,9.37
2022-10-09T20:13:37.764Z,9.34
2022-10-09T20:16:07.897Z,9.32
2022-10-09T20:18:34.898Z,9.30
2022-10-09T20:21:01.448Z,9.24
2022-10-09T20:23:27.926Z,9.22
2022-10-09T20:26:07.296Z,8.97
2022-10-09T20:28:36.740Z,9.14
2022-10-09T20:31:06.954Z,9.16
2022-10-09T20:33:34.756Z,8.38
2022-10-09T20:36:01.315Z,9.11
2022-10-09T20:38:27.916Z,8.76
2022-10-09T20:40:54.648Z,8.37
2022-10-09T20:43:21.182Z,8.32
2022-10-09T20:45:47.727Z,8.79
2022-10-09T20:48:14.317Z,8.92
2022-10-09T20:50:41.997Z,8.18
2022-10-09T20:53:10.035Z,7.88
2022-10-09T20:55:36.725Z,8.95
2022-10-09T20:58:04.163Z,7.84
2022-10-09T21:00:30.897Z,6.98
2022-10-09T21:02:57.620Z,8.80
2022-10-09T21:05:24.272Z,8.64
2022-10-09T21:07:50.799Z,8.79
2022-10-09T21:10:17.312Z,8.55
2022-10-09T21:12:43.872Z,8.74
2022-10-09T21:15:10.772Z,8.71
2022-10-09T21:17:37.548Z,8.48
2022-10-09T21:20:04.425Z,8.72
2022-10-09T21:22:30.971Z,7.96
2022-10-09T21:24:57.503Z,8.39
2022-10-09T21:27:24.058Z,7.87
2022-10-09T21:29:50.557Z,8.62
2022-10-09T21:32:17.052Z,8.33
2022-10-09T21:34:43.603Z,8.07
2022-10-09T21:37:21.925Z,8.22
2022-10-09T21:39:49.121Z,7.96
2022-10-09T21:42:15.607Z,8.34
2022-10-09T21:44:42.465Z,7.27
2022-10-09T21:47:18.690Z,7.68
2022-10-09T21:49:45.192Z,7.74
2022-10-09T21:52:11.885Z,8.18
2022-10-09T21:54:38.364Z,7.83
2022-10-09T21:57:04.943Z,8.39
2022-10-09T21:59:31.557Z,8.17
2022-10-09T22:01:58.099Z,8.14
2022-10-09T22:04:24.711Z,7.46
2022-10-09T22:06:51.191Z,7.85
2022-10-09T22:09:17.673Z,8.42
2022-10-09T22:11:44.997Z,7.66
2022-10-09T22:14:11.839Z,8.38
2022-10-09T22:16:38.365Z,7.76
2022-10-09T22:19:04.891Z,8.32
2022-10-09T22:21:31.509Z,7.92
2022-10-09T22:23:59.912Z,8.04
2022-10-09T22:26:26.783Z,7.98
2022-10-09T22:28:53.317Z,5.56
2022-10-09T22:31:25.267Z,8.12
2022-10-09T22:33:52.892Z,8.19
2022-10-09T22:36:21.688Z,8.00
2022-10-09T22:38:48.401Z,6.98
2022-10-09T22:41:17.619Z,7.80
2022-10-09T22:43:46.179Z,8.09
2022-10-09T22:46:28.224Z,7.89
2022-10-09T22:48:55.157Z,7.36
2022-10-09T22:51:24.146Z,7.98
2022-10-09T22:53:50.740Z,7.50
2022-10-09T22:56:19.807Z,8.00
2022-10-09T22:58:47.293Z,8.01
2022-10-09T23:01:20.961Z,7.99
2022-10-09T23:03:47.547Z,6.68
2022-10-09T23:06:16.645Z,8.05
2022-10-09T23:08:45.727Z,7.96
2022-10-09T23:11:13.415Z,8.03
2022-10-09T23:13:40.292Z,8.05
2022-10-09T23:16:10.336Z,7.42
2022-10-09T23:18:38.118Z,7.72
2022-10-09T23:21:13.917Z,7.90
2022-10-09T23:23:41.157Z,7.87
2022-10-09T23:26:12.106Z,7.85
2022-10-09T23:28:38.962Z,7.82
2022-10-09T23:31:14.756Z,6.87
2022-10-09T23:33:43.195Z,7.77
2022-10-09T23:36:12.367Z,7.79
2022-10-09T23:38:38.961Z,7.80
2022-10-09T23:41:08.756Z,6.74
2022-10-09T23:43:39.136Z,6.19
2022-10-09T23:46:08.312Z,7.36
2022-10-09T23:48:35.508Z,6.94
2022-10-09T23:51:02.315Z,7.19
2022-10-09T23:53:29.533Z,7.61
2022-10-09T23:55:56.377Z,7.61
2022-10-09T23:58:26.054Z,7.60
